createdAt,value
2023-05-01T00:25:00.840Z,1.9
2023-05-01T00:30:00.760Z,2.8
2023-05-01T00:35:00.821Z,3.0
2023-05-01T00:45:00.912Z,3.0
2023-05-01T00:50:00.797Z,1.4
2023-05-01T00:55:00.900Z,0.5
2023-05-01T01:20:00.955Z,0.2
2023-05-01T01:30:00.827Z,0.2
2023-05-01T01:40:00.917Z,0.1
2023-05-01T04:40:00.920Z,0.3
2023-05-01T05:10:01.457Z,0.1
2023-05-01T05:15:01.466Z,0.9
2023-05-01T05:20:02.369Z,4.5
2023-05-01T05:25:01.396Z,4.6
2023-05-01T05:30:01.344Z,4.6
2023-05-01T05:40:01.448Z,3.8
2023-05-01T05:50:01.396Z,3.6
2023-05-01T05:55:01.449Z,6.5
2023-05-01T06:00:01.309Z,8.2
2023-05-01T06:05:01.436Z,10.1
2023-05-01T06:10:01.323Z,13.2
2023-05-01T06:15:01.365Z,9.8
2023-05-01T06:20:01.299Z,7.4
2023-05-01T06:25:01.433Z,6.0
2023-05-01T06:30:01.371Z,9.0
2023-05-01T06:35:01.412Z,8.2
2023-05-01T06:40:01.311Z,9.9
2023-05-01T06:45:01.341Z,10.0
2023-05-01T06:50:02.417Z,12.1
2023-05-01T06:55:01.353Z,8.1
2023-05-01T07:00:01.256Z,6.5
2023-05-01T07:05:01.353Z,5.0
2023-05-01T07:10:01.280Z,4.7
2023-05-01T07:15:01.398Z,2.3
2023-05-01T07:20:01.254Z,3.5
2023-05-01T07:25:01.382Z,6.8
2023-05-01T07:30:06.270Z,13.4
2023-05-01T07:35:01.303Z,16.8
2023-05-01T07:40:01.242Z,17.0
2023-05-01T07:45:01.332Z,19.8
2023-05-01T07:50:01.263Z,25.8
2023-05-01T07:55:01.359Z,28.0
2023-05-01T08:00:01.225Z,33.5
2023-05-01T08:05:01.447Z,42.4
2023-05-01T08:10:01.452Z,51.1
2023-05-01T08:15:01.334Z,53.7
2023-05-01T08:20:01.213Z,57.5
2023-05-01T08:25:01.286Z,58.4
2023-05-01T08:30:01.256Z,65.4
2023-05-01T08:35:01.339Z,65.0
2023-05-01T08:40:01.205Z,66.9
2023-05-01T08:45:01.337Z,65.6
2023-05-01T08:50:01.219Z,65.3
2023-05-01T08:55:01.319Z,66.8
2023-05-01T09:00:01.189Z,67.3
2023-05-01T09:05:01.253Z,67.2
2023-05-01T09:10:01.205Z,63.4
2023-05-01T09:15:01.242Z,69.2
2023-05-01T09:20:01.175Z,67.5
2023-05-01T09:25:01.304Z,68.8
2023-05-01T09:30:01.195Z,71.2
2023-05-01T09:35:02.286Z,79.7
2023-05-01T09:55:05.923Z,84.0
2023-05-01T10:00:00.842Z,85.6
2023-05-01T10:05:00.926Z,83.9
2023-05-01T10:10:01.776Z,83.2
2023-05-01T10:25:01.476Z,90.8
2023-05-01T10:30:01.237Z,93.6
2023-05-01T10:35:01.366Z,94.0
2023-05-01T10:40:01.258Z,94.7
2023-05-01T10:55:00.881Z,94.2
2023-05-01T11:15:01.244Z,96.8
2023-05-01T11:20:01.067Z,95.9
2023-05-01T11:25:01.175Z,96.9
2023-05-01T11:30:01.045Z,95.1
2023-05-01T11:35:01.129Z,93.8
2023-05-01T11:40:01.040Z,92.3
2023-05-01T11:45:01.189Z,92.1
2023-05-01T11:50:01.081Z,92.0
2023-05-01T11:55:01.668Z,92.4
2023-05-01T12:00:01.075Z,92.8
2023-05-01T12:05:06.222Z,94.4
2023-05-01T12:10:01.113Z,95.6
2023-05-01T12:15:01.156Z,96.1
2023-05-01T12:25:01.174Z,96.5
2023-05-01T12:30:01.066Z,99.6
2023-05-01T12:35:01.367Z,99.0
2023-05-01T12:55:01.098Z,95.8
2023-05-01T13:00:01.155Z,101.7
2023-05-01T13:05:01.096Z,105.7
2023-05-01T13:10:01.301Z,105.1
2023-05-01T13:15:01.200Z,105.9
2023-05-01T13:20:01.453Z,108.2
2023-05-01T13:25:01.036Z,111.7
2023-05-01T13:30:01.219Z,113.7
2023-05-01T13:35:01.029Z,123.8
2023-05-01T13:40:01.193Z,131.7
2023-05-01T13:45:01.029Z,139.8
2023-05-01T13:50:01.204Z,148.2
2023-05-01T13:55:02.690Z,155.2
2023-05-01T14:00:00.987Z,152.6
2023-05-01T14:10:01.063Z,148.5
2023-05-01T14:15:01.643Z,140.1
2023-05-01T14:20:00.931Z,132.8
2023-05-01T14:25:01.181Z,127.5
2023-05-01T14:30:00.931Z,116.0
2023-05-01T14:35:01.131Z,109.3
2023-05-01T14:40:00.935Z,103.4
2023-05-01T14:45:01.119Z,96.0
2023-05-01T14:50:01.010Z,90.8
2023-05-01T14:55:01.173Z,89.7
2023-05-01T15:00:01.055Z,88.3
2023-05-01T15:05:01.136Z,90.1
2023-05-01T15:10:01.033Z,89.2
2023-05-01T15:15:01.115Z,90.6
2023-05-01T15:20:00.996Z,94.2
2023-05-01T15:25:01.242Z,94.8
2023-05-01T15:30:01.007Z,97.7
2023-05-01T15:35:02.138Z,106.2
2023-05-01T15:40:01.114Z,105.5
2023-05-01T15:45:01.241Z,104.6
2023-05-01T15:50:01.199Z,114.2
2023-05-01T15:55:01.120Z,119.2
2023-05-01T16:00:01.237Z,114.9
2023-05-01T16:05:00.971Z,128.2
2023-05-01T16:10:01.233Z,131.6
2023-05-01T16:15:06.110Z,124.9
2023-05-01T16:20:01.352Z,116.0
2023-05-01T16:25:01.011Z,121.9
2023-05-01T16:30:01.257Z,127.2
2023-05-01T16:35:01.104Z,135.9
2023-05-01T16:40:01.382Z,148.2
2023-05-01T16:45:01.080Z,161.9
2023-05-01T16:50:01.219Z,168.4
2023-05-01T16:55:01.050Z,159.5
2023-05-01T17:00:01.389Z,151.2
2023-05-01T17:05:01.124Z,144.4
2023-05-01T17:10:01.112Z,128.5
2023-05-01T17:15:01.176Z,114.9
2023-05-01T17:20:01.258Z,103.8
2023-05-01T17:25:01.068Z,97.7
2023-05-01T17:30:01.239Z,87.0
2023-05-01T17:35:01.343Z,85.5
2023-05-01T17:40:01.418Z,82.3
2023-05-01T17:45:01.073Z,82.3
2023-05-01T17:50:01.323Z,80.5
2023-05-01T17:55:01.104Z,80.9
2023-05-01T18:00:01.460Z,80.9
2023-05-01T18:05:01.448Z,80.7
2023-05-01T18:10:01.208Z,80.3
2023-05-01T18:15:01.048Z,80.2
2023-05-01T18:20:01.349Z,79.8
2023-05-01T18:25:01.076Z,79.0
2023-05-01T18:30:01.266Z,78.0
2023-05-01T18:35:01.114Z,76.5
2023-05-01T18:40:01.221Z,75.3
2023-05-01T18:45:01.038Z,74.9
2023-05-01T18:50:01.200Z,74.5
2023-05-01T18:55:01.208Z,74.8
2023-05-01T19:00:01.369Z,75.6
2023-05-01T19:05:01.111Z,73.9
2023-05-01T19:10:01.628Z,74.4
2023-05-01T19:15:01.047Z,74.6
2023-05-01T19:20:01.179Z,74.8
2023-05-01T19:25:01.027Z,75.3
2023-05-01T19:30:01.672Z,77.6
2023-05-01T19:35:01.681Z,77.4
2023-05-01T19:45:01.022Z,76.8
2023-05-01T19:50:01.158Z,72.1
2023-05-01T19:55:01.046Z,72.4
2023-05-01T20:00:01.397Z,72.5
2023-05-01T20:05:01.090Z,73.1
2023-05-01T20:10:01.159Z,74.2
2023-05-01T20:15:01.118Z,79.7
2023-05-01T20:20:01.238Z,80.5
2023-05-01T20:25:01.067Z,81.0
2023-05-01T20:30:01.223Z,82.0
2023-05-01T20:35:01.050Z,83.3
2023-05-01T20:40:01.197Z,84.2
2023-05-01T20:45:01.090Z,84.7
2023-05-01T20:50:01.138Z,85.8
2023-05-01T20:55:01.086Z,86.2
2023-05-01T21:00:01.335Z,86.3
2023-05-01T21:05:01.118Z,86.0
2023-05-01T21:10:01.132Z,86.8
2023-05-01T21:15:01.109Z,86.5
2023-05-01T21:20:01.174Z,85.8
2023-05-01T21:25:01.157Z,86.5
2023-05-01T21:30:01.203Z,87.6
2023-05-01T21:35:01.171Z,89.4
2023-05-01T21:40:01.286Z,89.9
2023-05-01T21:45:01.130Z,93.1
2023-05-01T21:50:01.159Z,92.0
2023-05-01T21:55:01.082Z,90.0
2023-05-01T22:00:01.198Z,86.1
2023-05-01T22:05:01.045Z,85.4
2023-05-01T22:10:01.268Z,82.1
2023-05-01T22:15:01.166Z,80.9
2023-05-01T22:20:01.223Z,80.6
2023-05-01T22:25:01.113Z,81.2
2023-05-01T22:30:01.367Z,80.6
2023-05-01T22:35:01.102Z,80.4
2023-05-01T22:40:01.191Z,80.8
2023-05-01T22:45:01.035Z,81.0
2023-05-01T22:50:01.460Z,83.5
2023-05-01T22:55:01.163Z,86.0
2023-05-01T23:00:01.396Z,92.2
2023-05-01T23:05:01.094Z,94.0
2023-05-01T23:10:01.295Z,94.5
2023-05-01T23:15:01.232Z,93.6
2023-05-01T23:20:01.817Z,91.3
2023-05-01T23:25:02.057Z,85.3
2023-05-01T23:30:01.297Z,85.8
2023-05-01T23:35:01.112Z,88.8
2023-05-01T23:45:01.098Z,92.2
2023-05-01T23:50:01.143Z,94.7
2023-05-01T23:55:01.051Z,95.1
